LHA2MK KPDX-KPAE
Flight info
| Callsign | LHA2MK |
|---|---|
| Flight time | 0h 42m |
| Altitude | 22000 |
| Route | BTG |
| Aircraft | B737/M-SDE1E2FGIRWYZ/S |
Departure
| Time | 2026-05-05 13:15 |
|---|---|
| Airport | Portland International Airport (KPDX) |
Arrival
| Time | 2026-05-05 13:57 |
|---|---|
| Airport | Seattle Paine Field International Airport (KPAE) |
| Time | Latitude | Longitude | Altitude | Speed | Heading |
|---|---|---|---|---|---|
| 2026-05-05 12:30 | 45.59113 | -122.59684 | 29 ft | 0 kts | 57° |
| 2026-05-05 12:54 | 45.59109 | -122.59693 | 29 ft | 2 kts | 57° |
| 2026-05-05 12:54 | 45.59101 | -122.59710 | 29 ft | 2 kts | 57° |
| 2026-05-05 12:55 | 45.59094 | -122.59726 | 29 ft | 2 kts | 36° |
| 2026-05-05 12:55 | 45.59081 | -122.59735 | 29 ft | 2 kts | 9° |
| 2026-05-05 12:55 | 45.59067 | -122.59738 | 28 ft | 2 kts | 347° |
| 2026-05-05 12:55 | 45.59056 | -122.59733 | 27 ft | 0 kts | 326° |
| 2026-05-05 12:58 | 45.59057 | -122.59733 | 27 ft | 1 kts | 324° |
| 2026-05-05 12:58 | 45.59067 | -122.59753 | 28 ft | 5 kts | 302° |
| 2026-05-05 12:58 | 45.59088 | -122.59815 | 34 ft | 8 kts | 300° |
| 2026-05-05 12:58 | 45.59113 | -122.59874 | 30 ft | 7 kts | 301° |
| 2026-05-05 12:59 | 45.59135 | -122.59935 | 28 ft | 7 kts | 287° |
| 2026-05-05 12:59 | 45.59138 | -122.60003 | 29 ft | 7 kts | 269° |
| 2026-05-05 12:59 | 45.59121 | -122.60062 | 29 ft | 7 kts | 225° |
| 2026-05-05 13:00 | 45.59043 | -122.60135 | 29 ft | 7 kts | 210° |
| 2026-05-05 13:00 | 45.59004 | -122.60167 | 30 ft | 6 kts | 208° |
| 2026-05-05 13:01 | 45.58914 | -122.60068 | 32 ft | 6 kts | 118° |
| 2026-05-05 13:01 | 45.58894 | -122.60016 | 33 ft | 6 kts | 119° |
| 2026-05-05 13:01 | 45.58870 | -122.59967 | 33 ft | 6 kts | 139° |
| 2026-05-05 13:01 | 45.58833 | -122.59943 | 33 ft | 6 kts | 164° |
| 2026-05-05 13:02 | 45.58794 | -122.59927 | 34 ft | 6 kts | 163° |
| 2026-05-05 13:02 | 45.58763 | -122.59895 | 34 ft | 6 kts | 122° |
| 2026-05-05 13:02 | 45.58744 | -122.59847 | 36 ft | 6 kts | 120° |
| 2026-05-05 13:02 | 45.58725 | -122.59799 | 36 ft | 5 kts | 118° |
| 2026-05-05 13:03 | 45.58707 | -122.59751 | 36 ft | 6 kts | 118° |
| 2026-05-05 13:03 | 45.58685 | -122.59693 | 33 ft | 7 kts | 119° |
| 2026-05-05 13:03 | 45.58659 | -122.59630 | 34 ft | 7 kts | 119° |
| 2026-05-05 13:03 | 45.58634 | -122.59566 | 34 ft | 7 kts | 120° |
| 2026-05-05 13:04 | 45.58610 | -122.59505 | 33 ft | 7 kts | 119° |
| 2026-05-05 13:04 | 45.58585 | -122.59441 | 33 ft | 8 kts | 120° |
| 2026-05-05 13:04 | 45.58553 | -122.59360 | 30 ft | 10 kts | 119° |
| 2026-05-05 13:04 | 45.58519 | -122.59272 | 30 ft | 10 kts | 118° |
| 2026-05-05 13:05 | 45.58485 | -122.59183 | 31 ft | 10 kts | 120° |
| 2026-05-05 13:05 | 45.58451 | -122.59097 | 28 ft | 10 kts | 118° |
| 2026-05-05 13:05 | 45.58419 | -122.59012 | 29 ft | 10 kts | 118° |
| 2026-05-05 13:05 | 45.58388 | -122.58929 | 31 ft | 9 kts | 117° |
| 2026-05-05 13:06 | 45.58357 | -122.58849 | 31 ft | 9 kts | 118° |
| 2026-05-05 13:06 | 45.58328 | -122.58770 | 30 ft | 9 kts | 119° |
| 2026-05-05 13:06 | 45.58297 | -122.58695 | 31 ft | 9 kts | 120° |
| 2026-05-05 13:06 | 45.58268 | -122.58622 | 32 ft | 8 kts | 120° |
| 2026-05-05 13:07 | 45.58240 | -122.58551 | 31 ft | 8 kts | 119° |
| 2026-05-05 13:07 | 45.58211 | -122.58478 | 31 ft | 9 kts | 119° |
| 2026-05-05 13:07 | 45.58181 | -122.58402 | 28 ft | 7 kts | 123° |
| 2026-05-05 13:07 | 45.58176 | -122.58391 | 29 ft | 0 kts | 128° |
| 2026-05-05 13:12 | 45.58175 | -122.58391 | 29 ft | 1 kts | 128° |
| 2026-05-05 13:12 | 45.58157 | -122.58360 | 29 ft | 7 kts | 133° |
| 2026-05-05 13:13 | 45.58126 | -122.58334 | 29 ft | 3 kts | 197° |
| 2026-05-05 13:13 | 45.58104 | -122.58360 | 29 ft | 5 kts | 220° |
| 2026-05-05 13:13 | 45.58072 | -122.58401 | 29 ft | 7 kts | 228° |
| 2026-05-05 13:13 | 45.58073 | -122.58462 | 32 ft | 8 kts | 304° |
| 2026-05-05 13:14 | 45.58113 | -122.58552 | 32 ft | 22 kts | 299° |
| 2026-05-05 13:14 | 45.58317 | -122.59081 | 30 ft | 100 kts | 300° |
| 2026-05-05 13:14 | 45.58742 | -122.60182 | 211 ft | 141 kts | 298° |
| 2026-05-05 13:14 | 45.59215 | -122.61507 | 535 ft | 170 kts | 296° |
| 2026-05-05 13:15 | 45.59937 | -122.62952 | 1101 ft | 183 kts | 327° |
| 2026-05-05 13:15 | 45.61160 | -122.63259 | 1870 ft | 188 kts | 13° |
| 2026-05-05 13:15 | 45.62509 | -122.62600 | 2309 ft | 223 kts | 19° |
| 2026-05-05 13:15 | 45.64112 | -122.61867 | 2702 ft | 256 kts | 16° |
| 2026-05-05 13:16 | 45.65871 | -122.61221 | 3653 ft | 264 kts | 12° |
| 2026-05-05 13:16 | 45.67643 | -122.60713 | 4992 ft | 255 kts | 9° |
| 2026-05-05 13:16 | 45.69400 | -122.60299 | 6122 ft | 259 kts | 9° |
| 2026-05-05 13:16 | 45.71207 | -122.59918 | 7122 ft | 266 kts | 8° |
| 2026-05-05 13:17 | 45.73067 | -122.59544 | 8137 ft | 274 kts | 8° |
| 2026-05-05 13:17 | 45.74989 | -122.59239 | 9208 ft | 282 kts | 0° |
| 2026-05-05 13:17 | 45.76961 | -122.59563 | 10275 ft | 289 kts | 351° |
| 2026-05-05 13:17 | 45.79014 | -122.60090 | 10887 ft | 314 kts | 350° |
| 2026-05-05 13:18 | 45.81215 | -122.60680 | 11659 ft | 326 kts | 350° |
| 2026-05-05 13:18 | 45.83454 | -122.61275 | 12792 ft | 328 kts | 351° |
| 2026-05-05 13:18 | 45.85704 | -122.61860 | 13991 ft | 329 kts | 351° |
| 2026-05-05 13:18 | 45.87970 | -122.62438 | 15019 ft | 333 kts | 352° |
| 2026-05-05 13:19 | 45.90270 | -122.63017 | 16036 ft | 338 kts | 352° |
| 2026-05-05 13:19 | 45.92599 | -122.63599 | 17081 ft | 342 kts | 352° |
| 2026-05-05 13:19 | 45.94963 | -122.64188 | 18113 ft | 347 kts | 352° |
| 2026-05-05 13:19 | 45.97361 | -122.64784 | 19020 ft | 352 kts | 352° |
| 2026-05-05 13:20 | 45.99789 | -122.65389 | 19918 ft | 355 kts | 352° |
| 2026-05-05 13:20 | 46.02208 | -122.65994 | 21087 ft | 350 kts | 352° |
| 2026-05-05 13:20 | 46.04617 | -122.66594 | 21807 ft | 350 kts | 352° |
| 2026-05-05 13:20 | 46.07007 | -122.67190 | 22062 ft | 349 kts | 352° |
| 2026-05-05 13:21 | 46.09416 | -122.67791 | 22041 ft | 351 kts | 352° |
| 2026-05-05 13:21 | 46.11811 | -122.68391 | 22046 ft | 348 kts | 352° |
| 2026-05-05 13:21 | 46.14200 | -122.68992 | 22065 ft | 348 kts | 352° |
| 2026-05-05 13:21 | 46.16590 | -122.69594 | 22067 ft | 348 kts | 352° |
| 2026-05-05 13:22 | 46.18979 | -122.70195 | 22066 ft | 348 kts | 352° |
| 2026-05-05 13:22 | 46.21365 | -122.70797 | 22067 ft | 348 kts | 352° |
| 2026-05-05 13:22 | 46.23752 | -122.71398 | 22071 ft | 348 kts | 352° |
| 2026-05-05 13:22 | 46.26113 | -122.71995 | 22053 ft | 349 kts | 352° |
| 2026-05-05 13:23 | 46.27728 | -122.72403 | 22063 ft | 349 kts | 352° |
| 2026-05-05 13:23 | 46.30119 | -122.73008 | 22053 ft | 349 kts | 352° |
| 2026-05-05 13:23 | 46.32516 | -122.73614 | 22060 ft | 349 kts | 352° |
| 2026-05-05 13:23 | 46.34912 | -122.74221 | 22060 ft | 350 kts | 352° |
| 2026-05-05 13:24 | 46.37310 | -122.74829 | 22045 ft | 350 kts | 352° |
| 2026-05-05 13:24 | 46.39711 | -122.75438 | 22049 ft | 350 kts | 352° |
| 2026-05-05 13:24 | 46.42109 | -122.76047 | 22053 ft | 350 kts | 352° |
| 2026-05-05 13:24 | 46.44503 | -122.76656 | 22032 ft | 350 kts | 352° |
| 2026-05-05 13:25 | 46.46898 | -122.77265 | 22053 ft | 349 kts | 352° |
| 2026-05-05 13:25 | 46.49295 | -122.77876 | 22040 ft | 349 kts | 352° |
| 2026-05-05 13:25 | 46.51658 | -122.78478 | 22052 ft | 349 kts | 352° |
| 2026-05-05 13:25 | 46.54050 | -122.79088 | 22059 ft | 349 kts | 352° |
| 2026-05-05 13:26 | 46.56444 | -122.79700 | 22045 ft | 349 kts | 352° |
| 2026-05-05 13:26 | 46.58836 | -122.80311 | 22050 ft | 349 kts | 352° |
| 2026-05-05 13:26 | 46.61227 | -122.80923 | 22044 ft | 348 kts | 352° |
| 2026-05-05 13:26 | 46.63613 | -122.81534 | 22051 ft | 348 kts | 352° |
| 2026-05-05 13:27 | 46.65999 | -122.82145 | 22034 ft | 348 kts | 351° |
| 2026-05-05 13:27 | 46.68382 | -122.82757 | 22039 ft | 348 kts | 352° |
| 2026-05-05 13:27 | 46.70765 | -122.83369 | 22040 ft | 348 kts | 351° |
| 2026-05-05 13:27 | 46.73146 | -122.83980 | 22049 ft | 348 kts | 351° |
| 2026-05-05 13:28 | 46.75528 | -122.84593 | 22048 ft | 348 kts | 351° |
| 2026-05-05 13:28 | 46.77914 | -122.85207 | 22046 ft | 348 kts | 351° |
| 2026-05-05 13:28 | 46.80298 | -122.85821 | 22049 ft | 348 kts | 351° |
| 2026-05-05 13:28 | 46.82682 | -122.86436 | 21732 ft | 352 kts | 351° |
| 2026-05-05 13:29 | 46.85116 | -122.87063 | 21052 ft | 357 kts | 351° |
| 2026-05-05 13:29 | 46.87567 | -122.87697 | 20268 ft | 358 kts | 351° |
| 2026-05-05 13:29 | 46.90012 | -122.88330 | 19588 ft | 355 kts | 352° |
| 2026-05-05 13:29 | 46.92440 | -122.88958 | 18908 ft | 353 kts | 352° |
| 2026-05-05 13:30 | 46.94864 | -122.89437 | 18198 ft | 350 kts | 1° |
| 2026-05-05 13:30 | 46.97182 | -122.88836 | 17786 ft | 337 kts | 17° |
| 2026-05-05 13:30 | 46.99319 | -122.87406 | 17065 ft | 338 kts | 32° |
| 2026-05-05 13:30 | 47.01169 | -122.85305 | 16392 ft | 337 kts | 39° |
| 2026-05-05 13:31 | 47.02914 | -122.83022 | 15716 ft | 335 kts | 40° |
| 2026-05-05 13:31 | 47.04636 | -122.80750 | 15031 ft | 329 kts | 40° |
| 2026-05-05 13:31 | 47.06292 | -122.78575 | 14817 ft | 313 kts | 39° |
| 2026-05-05 13:31 | 47.07908 | -122.76496 | 14629 ft | 307 kts | 39° |
| 2026-05-05 13:32 | 47.09543 | -122.74408 | 14454 ft | 315 kts | 39° |
| 2026-05-05 13:32 | 47.11206 | -122.72286 | 14282 ft | 319 kts | 39° |
| 2026-05-05 13:32 | 47.12876 | -122.70151 | 14086 ft | 317 kts | 39° |
| 2026-05-05 13:32 | 47.14535 | -122.68026 | 13897 ft | 317 kts | 39° |
| 2026-05-05 13:33 | 47.16203 | -122.65889 | 13706 ft | 320 kts | 39° |
| 2026-05-05 13:33 | 47.17889 | -122.63726 | 13507 ft | 321 kts | 39° |
| 2026-05-05 13:33 | 47.19561 | -122.61580 | 13301 ft | 318 kts | 39° |
| 2026-05-05 13:33 | 47.21211 | -122.59457 | 13093 ft | 310 kts | 39° |
| 2026-05-05 13:34 | 47.22797 | -122.57415 | 12880 ft | 296 kts | 39° |
| 2026-05-05 13:34 | 47.24319 | -122.55454 | 12668 ft | 286 kts | 39° |
| 2026-05-05 13:34 | 47.25810 | -122.53536 | 12467 ft | 284 kts | 39° |
| 2026-05-05 13:34 | 47.27296 | -122.51620 | 12270 ft | 285 kts | 40° |
| 2026-05-05 13:35 | 47.28796 | -122.49685 | 12071 ft | 288 kts | 40° |
| 2026-05-05 13:35 | 47.30335 | -122.47775 | 11852 ft | 290 kts | 32° |
| 2026-05-05 13:35 | 47.32200 | -122.46719 | 11640 ft | 288 kts | 9° |
| 2026-05-05 13:35 | 47.34199 | -122.46582 | 11452 ft | 287 kts | 0° |
| 2026-05-05 13:36 | 47.36198 | -122.46622 | 11237 ft | 288 kts | 359° |
| 2026-05-05 13:36 | 47.38203 | -122.46723 | 11030 ft | 288 kts | 358° |
| 2026-05-05 13:36 | 47.40209 | -122.46846 | 10815 ft | 289 kts | 358° |
| 2026-05-05 13:36 | 47.42213 | -122.46970 | 10607 ft | 288 kts | 358° |
| 2026-05-05 13:37 | 47.44220 | -122.47093 | 10401 ft | 289 kts | 358° |
| 2026-05-05 13:37 | 47.46229 | -122.47208 | 10194 ft | 289 kts | 358° |
| 2026-05-05 13:37 | 47.48221 | -122.47308 | 9976 ft | 281 kts | 359° |
| 2026-05-05 13:37 | 47.50144 | -122.47382 | 9745 ft | 272 kts | 0° |
| 2026-05-05 13:38 | 47.52001 | -122.47396 | 9548 ft | 264 kts | 1° |
| 2026-05-05 13:38 | 47.53835 | -122.47431 | 9357 ft | 264 kts | 359° |
| 2026-05-05 13:38 | 47.55681 | -122.47482 | 9169 ft | 266 kts | 359° |
| 2026-05-05 13:38 | 47.57540 | -122.47549 | 8978 ft | 268 kts | 359° |
| 2026-05-05 13:39 | 47.59406 | -122.47602 | 8775 ft | 269 kts | 359° |
| 2026-05-05 13:39 | 47.61277 | -122.47686 | 8583 ft | 269 kts | 359° |
| 2026-05-05 13:39 | 47.63146 | -122.47772 | 8385 ft | 268 kts | 358° |
| 2026-05-05 13:39 | 47.64998 | -122.47863 | 8189 ft | 264 kts | 358° |
| 2026-05-05 13:40 | 47.66817 | -122.47950 | 7999 ft | 260 kts | 359° |
| 2026-05-05 13:40 | 47.68624 | -122.48019 | 7812 ft | 259 kts | 359° |
| 2026-05-05 13:40 | 47.70426 | -122.48106 | 7636 ft | 258 kts | 359° |
| 2026-05-05 13:40 | 47.72221 | -122.48179 | 7447 ft | 258 kts | 359° |
| 2026-05-05 13:41 | 47.73986 | -122.48267 | 7267 ft | 257 kts | 357° |
| 2026-05-05 13:41 | 47.75773 | -122.48454 | 7090 ft | 257 kts | 355° |
| 2026-05-05 13:41 | 47.77559 | -122.48655 | 6913 ft | 257 kts | 355° |
| 2026-05-05 13:41 | 47.79349 | -122.48852 | 6727 ft | 258 kts | 356° |
| 2026-05-05 13:42 | 47.81143 | -122.49027 | 6548 ft | 258 kts | 356° |
| 2026-05-05 13:42 | 47.82939 | -122.49186 | 6379 ft | 259 kts | 358° |
| 2026-05-05 13:42 | 47.84738 | -122.49279 | 6193 ft | 258 kts | 359° |
| 2026-05-05 13:42 | 47.86533 | -122.49355 | 6013 ft | 258 kts | 358° |
| 2026-05-05 13:43 | 47.88319 | -122.49462 | 5833 ft | 256 kts | 357° |
| 2026-05-05 13:43 | 47.90094 | -122.49601 | 5665 ft | 255 kts | 356° |
| 2026-05-05 13:43 | 47.91858 | -122.49754 | 5503 ft | 253 kts | 357° |
| 2026-05-05 13:43 | 47.93610 | -122.49904 | 5363 ft | 251 kts | 356° |
| 2026-05-05 13:44 | 47.95351 | -122.50081 | 5206 ft | 250 kts | 356° |
| 2026-05-05 13:44 | 47.97080 | -122.50279 | 5070 ft | 249 kts | 356° |
| 2026-05-05 13:44 | 47.98797 | -122.50469 | 4941 ft | 247 kts | 355° |
| 2026-05-05 13:44 | 48.00513 | -122.50695 | 4825 ft | 248 kts | 354° |
| 2026-05-05 13:45 | 48.02242 | -122.50951 | 4710 ft | 250 kts | 354° |
| 2026-05-05 13:45 | 48.03980 | -122.51194 | 4616 ft | 252 kts | 354° |
| 2026-05-05 13:45 | 48.05729 | -122.51410 | 4519 ft | 252 kts | 356° |
| 2026-05-05 13:45 | 48.07479 | -122.51549 | 4446 ft | 252 kts | 356° |
| 2026-05-05 13:46 | 48.09229 | -122.51679 | 4385 ft | 251 kts | 358° |
| 2026-05-05 13:46 | 48.10970 | -122.51781 | 4339 ft | 250 kts | 356° |
| 2026-05-05 13:46 | 48.12707 | -122.51911 | 4305 ft | 250 kts | 357° |
| 2026-05-05 13:46 | 48.14444 | -122.51996 | 4291 ft | 251 kts | 358° |
| 2026-05-05 13:47 | 48.16196 | -122.52076 | 4287 ft | 254 kts | 358° |
| 2026-05-05 13:47 | 48.17963 | -122.52171 | 4284 ft | 255 kts | 357° |
| 2026-05-05 13:47 | 48.19737 | -122.52266 | 4287 ft | 255 kts | 357° |
| 2026-05-05 13:47 | 48.21494 | -122.52404 | 4287 ft | 256 kts | 356° |
| 2026-05-05 13:48 | 48.23311 | -122.52505 | 4129 ft | 261 kts | 357° |
| 2026-05-05 13:48 | 48.25126 | -122.52653 | 3870 ft | 260 kts | 0° |
| 2026-05-05 13:48 | 48.26854 | -122.52002 | 3613 ft | 257 kts | 30° |
| 2026-05-05 13:48 | 48.28125 | -122.50185 | 3371 ft | 254 kts | 60° |
| 2026-05-05 13:49 | 48.28622 | -122.47680 | 3138 ft | 252 kts | 91° |
| 2026-05-05 13:49 | 48.28248 | -122.45151 | 3070 ft | 250 kts | 110° |
| 2026-05-05 13:49 | 48.28051 | -122.42552 | 3014 ft | 254 kts | 84° |
| 2026-05-05 13:49 | 48.28457 | -122.39985 | 2999 ft | 252 kts | 81° |
| 2026-05-05 13:50 | 48.28337 | -122.37409 | 2997 ft | 247 kts | 111° |
| 2026-05-05 13:50 | 48.27376 | -122.35314 | 3008 ft | 246 kts | 141° |
| 2026-05-05 13:50 | 48.25905 | -122.33999 | 3008 ft | 247 kts | 154° |
| 2026-05-05 13:50 | 48.24360 | -122.32838 | 2999 ft | 249 kts | 153° |
| 2026-05-05 13:51 | 48.22808 | -122.31673 | 3003 ft | 250 kts | 154° |
| 2026-05-05 13:51 | 48.21276 | -122.30520 | 3010 ft | 250 kts | 153° |
| 2026-05-05 13:51 | 48.19681 | -122.29404 | 2996 ft | 250 kts | 163° |
| 2026-05-05 13:51 | 48.17969 | -122.29070 | 3007 ft | 248 kts | 178° |
| 2026-05-05 13:52 | 48.16263 | -122.29060 | 3011 ft | 247 kts | 180° |
| 2026-05-05 13:52 | 48.14572 | -122.29065 | 2994 ft | 236 kts | 179° |
| 2026-05-05 13:52 | 48.12983 | -122.29046 | 2989 ft | 220 kts | 179° |
| 2026-05-05 13:52 | 48.11480 | -122.29017 | 2987 ft | 206 kts | 179° |
| 2026-05-05 13:53 | 48.10113 | -122.28986 | 2990 ft | 195 kts | 179° |
| 2026-05-05 13:53 | 48.08756 | -122.28956 | 3013 ft | 199 kts | 179° |
| 2026-05-05 13:53 | 48.07342 | -122.28924 | 3023 ft | 201 kts | 179° |
| 2026-05-05 13:53 | 48.05986 | -122.28893 | 3005 ft | 184 kts | 179° |
| 2026-05-05 13:54 | 48.04769 | -122.28866 | 2978 ft | 167 kts | 179° |
| 2026-05-05 13:54 | 48.03615 | -122.28840 | 2845 ft | 168 kts | 179° |
| 2026-05-05 13:54 | 48.02480 | -122.28814 | 2626 ft | 160 kts | 179° |
| 2026-05-05 13:54 | 48.01398 | -122.28790 | 2422 ft | 151 kts | 178° |
| 2026-05-05 13:55 | 48.00347 | -122.28767 | 2219 ft | 151 kts | 178° |
| 2026-05-05 13:55 | 47.99297 | -122.28742 | 2023 ft | 152 kts | 178° |
| 2026-05-05 13:55 | 47.98232 | -122.28718 | 1818 ft | 150 kts | 179° |
| 2026-05-05 13:55 | 47.97214 | -122.28695 | 1606 ft | 143 kts | 179° |
| 2026-05-05 13:56 | 47.96255 | -122.28673 | 1408 ft | 133 kts | 179° |
| 2026-05-05 13:56 | 47.95353 | -122.28653 | 1291 ft | 128 kts | 179° |
| 2026-05-05 13:56 | 47.94466 | -122.28632 | 1107 ft | 122 kts | 180° |
| 2026-05-05 13:56 | 47.93648 | -122.28600 | 909 ft | 114 kts | 178° |
| 2026-05-05 13:57 | 47.92859 | -122.28566 | 828 ft | 112 kts | 182° |
| 2026-05-05 13:57 | 47.92113 | -122.28582 | 666 ft | 109 kts | 181° |
| 2026-05-05 13:57 | 47.91370 | -122.28564 | 571 ft | 95 kts | 182° |
| 2026-05-05 13:57 | 47.90932 | -122.28565 | 572 ft | 27 kts | 179° |
| 2026-05-05 13:58 | 47.90779 | -122.28544 | 569 ft | 12 kts | 152° |
| 2026-05-05 13:58 | 47.90754 | -122.28436 | 568 ft | 12 kts | 91° |
| 2026-05-05 13:58 | 47.90753 | -122.28377 | 568 ft | 0 kts | 89° |
| 2026-05-05 13:58 | 47.90753 | -122.28329 | 568 ft | 8 kts | 89° |
| 2026-05-05 13:59 | 47.90757 | -122.28130 | 571 ft | 11 kts | 90° |
| 2026-05-05 13:59 | 47.90757 | -122.28022 | 568 ft | 9 kts | 89° |
| 2026-05-05 14:00 | 47.90796 | -122.27931 | 571 ft | 6 kts | 58° |
| 2026-05-05 14:00 | 47.90801 | -122.27914 | 573 ft | 0 kts | 65° |